Antonino, Kansas
Current Conditions -  °F | °C
As of 4:15 AM on Sunday 25 Jan 2015 (Local Time) from KHYS Reporting Station
Clear Clear  
Wind Chill: 34°   Ceiling: Unl
Heat Index: 43°   Visibility: 10mi
Dew Point: 25°   Wind: 22mph
Humidity: 49%   Direction: 310°NW
Pressure: 29.94"   Gusts: 30mph
Location:  38.8338°N, 99.3297°W
Report Text: KHYS 251015Z AUTO 31019G26KT 10SM CLR 06/M04 A2994 RMK AO1
Loading
Personal Weather Stations






























Interactive Weather Map New forecast layout! Learn more

10-Day Weather Forecast

Advertisements
Track Severe Weather on mobile